createdAt,value
2018-06-20T00:00:25.498Z,8.07
2018-06-20T00:02:54.187Z,8.13
2018-06-20T00:05:22.823Z,8.70
2018-06-20T00:07:51.397Z,7.70
2018-06-20T00:10:20.061Z,8.90
2018-06-20T00:12:49.419Z,7.97
2018-06-20T00:15:18.267Z,8.17
2018-06-20T00:17:46.859Z,8.40
2018-06-20T00:20:15.625Z,7.80
2018-06-20T00:22:44.314Z,8.77
2018-06-20T00:25:13.205Z,8.40
2018-06-20T00:27:41.398Z,7.57
2018-06-20T00:30:10.075Z,7.83
2018-06-20T00:32:38.900Z,8.63
2018-06-20T00:35:07.670Z,9.80
2018-06-20T00:37:36.339Z,10.03
2018-06-20T00:40:05.148Z,9.40
2018-06-20T00:42:33.894Z,8.60
2018-06-20T00:45:02.691Z,9.03
2018-06-20T00:47:31.311Z,8.70
2018-06-20T00:50:00.136Z,8.00
2018-06-20T00:52:28.727Z,8.30
2018-06-20T00:54:57.467Z,8.70
2018-06-20T00:57:26.156Z,8.10
2018-06-20T00:59:55.060Z,9.10
2018-06-20T01:02:23.691Z,8.60
2018-06-20T01:04:52.450Z,8.30
2018-06-20T01:07:20.970Z,8.47
2018-06-20T01:09:49.836Z,8.43
2018-06-20T01:12:18.613Z,7.93
2018-06-20T01:14:47.307Z,7.50
2018-06-20T01:17:16.063Z,7.90
2018-06-20T01:19:44.910Z,8.73
2018-06-20T01:22:13.495Z,9.40
2018-06-20T01:24:42.390Z,8.57
2018-06-20T01:27:11.010Z,8.37
2018-06-20T01:29:39.597Z,9.03
2018-06-20T01:32:08.384Z,8.23
2018-06-20T01:34:37.168Z,9.37
2018-06-20T01:37:06.174Z,7.37
2018-06-20T01:39:35.119Z,7.73
2018-06-20T01:42:03.999Z,8.30
2018-06-20T01:44:32.775Z,8.40
2018-06-20T01:47:01.335Z,7.83
2018-06-20T01:49:30.043Z,8.07
2018-06-20T01:51:58.626Z,7.93
2018-06-20T01:54:27.323Z,7.30
2018-06-20T01:56:56.068Z,8.00
2018-06-20T01:59:24.788Z,8.37
2018-06-20T02:01:53.369Z,9.13
2018-06-20T02:04:22.046Z,9.10
2018-06-20T02:06:50.779Z,8.40
2018-06-20T02:09:19.439Z,8.53
2018-06-20T02:11:48.083Z,8.80
2018-06-20T02:14:16.984Z,9.07
2018-06-20T02:16:45.682Z,9.07
2018-06-20T02:19:14.475Z,9.37
2018-06-20T02:21:42.949Z,9.77
2018-06-20T02:24:11.758Z,10.13
2018-06-20T02:26:40.603Z,8.77
2018-06-20T02:29:09.242Z,9.40
2018-06-20T02:31:38.024Z,10.10
2018-06-20T02:34:06.618Z,8.23
2018-06-20T02:36:35.356Z,10.13
2018-06-20T02:39:06.652Z,10.20
2018-06-20T02:41:36.192Z,9.90
2018-06-20T02:44:04.953Z,9.40
2018-06-20T02:46:33.903Z,9.00
2018-06-20T02:49:02.680Z,9.83
2018-06-20T02:51:31.306Z,9.10
2018-06-20T02:53:59.955Z,9.17
2018-06-20T02:56:28.592Z,9.10
2018-06-20T02:58:57.238Z,10.23
2018-06-20T03:01:25.771Z,9.90
2018-06-20T03:03:54.412Z,9.03
2018-06-20T03:06:22.935Z,10.03
2018-06-20T03:08:56.888Z,9.77
2018-06-20T03:11:25.443Z,9.07
2018-06-20T03:13:54.238Z,9.70
2018-06-20T03:16:22.908Z,9.67
2018-06-20T03:18:51.500Z,9.43
2018-06-20T03:21:20.243Z,10.10
2018-06-20T03:23:48.879Z,10.10
2018-06-20T03:26:17.350Z,11.07
2018-06-20T03:28:46.099Z,10.23
2018-06-20T03:31:14.820Z,10.03
2018-06-20T03:33:43.419Z,9.90
2018-06-20T03:36:11.963Z,9.93
2018-06-20T03:38:40.752Z,10.53
2018-06-20T03:41:09.546Z,10.70
2018-06-20T03:43:38.114Z,10.77
2018-06-20T03:46:06.807Z,10.13
2018-06-20T03:48:35.370Z,10.70
2018-06-20T03:51:03.991Z,10.73
2018-06-20T03:53:32.677Z,11.07
2018-06-20T03:56:01.391Z,10.10
2018-06-20T03:58:30.134Z,10.03
2018-06-20T04:00:58.723Z,10.67
2018-06-20T04:03:27.571Z,10.57
2018-06-20T04:05:56.188Z,10.70
2018-06-20T04:08:24.937Z,10.77
2018-06-20T04:10:53.585Z,10.30
2018-06-20T04:13:22.430Z,10.90
2018-06-20T04:15:51.091Z,9.80
2018-06-20T04:18:19.704Z,10.07
2018-06-20T04:20:48.331Z,10.53
2018-06-20T04:23:16.943Z,9.63
2018-06-20T04:25:45.751Z,11.10
2018-06-20T04:28:14.368Z,9.70
2018-06-20T04:30:43.200Z,10.40
2018-06-20T04:33:11.787Z,10.57
2018-06-20T04:35:40.539Z,10.33
2018-06-20T04:38:09.303Z,9.73
2018-06-20T04:40:38.095Z,10.97
2018-06-20T04:43:06.894Z,10.60
2018-06-20T04:45:35.616Z,10.90
2018-06-20T04:48:04.660Z,9.93
2018-06-20T04:50:33.555Z,9.30
2018-06-20T04:53:02.191Z,10.13
2018-06-20T04:55:30.830Z,11.80
2018-06-20T04:57:59.537Z,11.00
2018-06-20T05:00:28.211Z,9.90
2018-06-20T05:02:56.936Z,11.43
2018-06-20T05:05:25.887Z,10.80
2018-06-20T05:07:54.618Z,10.37
2018-06-20T05:10:23.296Z,10.33
2018-06-20T05:12:51.966Z,10.63
2018-06-20T05:15:20.446Z,10.63
2018-06-20T05:17:49.382Z,10.47
2018-06-20T05:20:18.139Z,10.37
2018-06-20T05:22:46.756Z,8.70
2018-06-20T05:25:15.505Z,10.37
2018-06-20T05:27:44.237Z,9.90
2018-06-20T05:30:13.166Z,9.33
2018-06-20T05:32:41.827Z,9.33
2018-06-20T05:35:10.684Z,9.00
2018-06-20T05:37:39.360Z,9.90
2018-06-20T05:40:08.109Z,9.60
2018-06-20T05:42:36.875Z,9.93
2018-06-20T05:45:05.679Z,9.47
2018-06-20T05:47:34.278Z,9.17
2018-06-20T05:50:03.027Z,8.77
2018-06-20T05:52:31.631Z,9.50
2018-06-20T05:55:00.581Z,9.43
2018-06-20T05:57:29.327Z,9.03
2018-06-20T05:59:58.317Z,9.70
2018-06-20T06:02:27.023Z,9.40
2018-06-20T06:04:55.928Z,9.43
2018-06-20T06:07:24.734Z,9.47
2018-06-20T06:09:53.423Z,9.00
2018-06-20T06:12:22.115Z,10.10
2018-06-20T06:14:50.900Z,9.27
2018-06-20T06:17:19.647Z,9.63
2018-06-20T06:19:48.355Z,10.07
2018-06-20T06:22:17.119Z,9.40
2018-06-20T06:24:45.822Z,8.57
2018-06-20T06:27:14.571Z,8.63
2018-06-20T06:29:43.555Z,8.83
2018-06-20T06:32:12.117Z,9.00
2018-06-20T06:34:41.060Z,8.27
2018-06-20T06:37:10.080Z,8.33
2018-06-20T06:39:38.680Z,8.60
2018-06-20T06:42:07.579Z,7.10
2018-06-20T06:44:36.088Z,8.30
2018-06-20T06:47:04.810Z,8.63
2018-06-20T06:49:33.627Z,8.30
2018-06-20T06:52:02.159Z,8.13
2018-06-20T06:54:30.763Z,9.40
2018-06-20T06:56:59.642Z,8.33
2018-06-20T06:59:28.492Z,8.47
2018-06-20T07:01:57.459Z,8.50
2018-06-20T07:04:26.073Z,9.37
2018-06-20T07:06:54.756Z,8.70
2018-06-20T07:09:23.779Z,8.33
2018-06-20T07:11:52.343Z,7.77
2018-06-20T07:14:21.333Z,7.90
2018-06-20T07:16:50.231Z,9.00
2018-06-20T07:19:18.979Z,8.67
2018-06-20T07:21:48.043Z,7.37
2018-06-20T07:24:16.706Z,8.97
2018-06-20T07:26:45.380Z,9.00
2018-06-20T07:29:14.392Z,8.60
2018-06-20T07:31:43.002Z,8.97
2018-06-20T07:34:11.759Z,7.90
2018-06-20T07:36:40.471Z,8.73
2018-06-20T07:39:09.351Z,7.90
2018-06-20T07:41:38.091Z,8.77
2018-06-20T07:44:06.445Z,8.33
2018-06-20T07:46:35.289Z,9.30
2018-06-20T07:49:04.175Z,8.83
2018-06-20T07:51:32.990Z,8.53
2018-06-20T07:54:01.584Z,7.93
2018-06-20T07:56:30.308Z,8.13
2018-06-20T07:58:59.542Z,8.90
2018-06-20T08:02:47.111Z,7.80
2018-06-20T08:05:21.406Z,9.10
2018-06-20T08:07:55.515Z,9.40
2018-06-20T08:10:29.348Z,8.73
2018-06-20T08:13:03.132Z,8.13
2018-06-20T08:15:37.259Z,8.83
2018-06-20T08:18:11.214Z,8.90
2018-06-20T08:20:39.753Z,8.30
2018-06-20T08:23:08.414Z,9.00
2018-06-20T08:25:36.948Z,9.27
2018-06-20T08:28:05.807Z,8.70
2018-06-20T08:30:34.335Z,10.13
2018-06-20T08:33:02.826Z,8.67
2018-06-20T08:35:33.731Z,8.80
2018-06-20T08:38:02.571Z,9.20
2018-06-20T08:40:31.041Z,8.30
2018-06-20T08:42:59.619Z,7.80
2018-06-20T08:45:28.104Z,8.00
2018-06-20T08:47:56.711Z,6.57
2018-06-20T08:50:25.183Z,8.20
2018-06-20T08:52:53.795Z,7.90
2018-06-20T08:55:22.286Z,8.73
2018-06-20T08:57:50.998Z,7.63
2018-06-20T09:00:24.866Z,8.00
2018-06-20T09:02:53.483Z,8.20
2018-06-20T09:05:27.615Z,7.40
2018-06-20T09:08:01.553Z,7.63
2018-06-20T09:10:35.478Z,7.60
2018-06-20T09:13:09.291Z,6.30
2018-06-20T09:15:43.464Z,6.43
2018-06-20T09:18:17.294Z,6.60
2018-06-20T09:20:45.836Z,6.53
2018-06-20T09:23:14.544Z,6.03
2018-06-20T09:25:43.484Z,6.63
2018-06-20T09:28:12.092Z,6.80
2018-06-20T09:30:40.800Z,6.43
2018-06-20T09:33:09.297Z,5.87
2018-06-20T09:35:37.934Z,5.30
2018-06-20T09:38:06.159Z,4.87
2018-06-20T09:40:34.701Z,4.63
2018-06-20T09:43:03.472Z,4.83
2018-06-20T09:45:31.727Z,5.40
2018-06-20T09:48:00.411Z,4.33
2018-06-20T09:50:34.428Z,4.60
2018-06-20T09:53:03.391Z,5.13
2018-06-20T09:55:32.130Z,4.60
2018-06-20T09:58:00.949Z,4.60
2018-06-20T10:02:44.483Z,4.47
2018-06-20T10:05:18.576Z,4.13
2018-06-20T10:07:52.255Z,4.07
2018-06-20T10:10:26.087Z,4.27
2018-06-20T10:13:00.202Z,4.00
2018-06-20T10:15:29.124Z,4.77
2018-06-20T10:17:57.856Z,4.50
2018-06-20T10:20:29.362Z,4.80
2018-06-20T10:22:59.588Z,4.70
2018-06-20T10:25:28.876Z,4.50
2018-06-20T10:27:58.132Z,4.60
2018-06-20T10:30:26.844Z,5.40
2018-06-20T10:32:55.444Z,4.70
2018-06-20T10:35:24.383Z,4.80
2018-06-20T10:37:52.943Z,5.90
2018-06-20T10:40:21.505Z,5.03
2018-06-20T10:42:50.104Z,5.20
2018-06-20T10:45:23.743Z,5.10
2018-06-20T10:47:52.765Z,4.60
2018-06-20T10:50:21.617Z,5.30
2018-06-20T10:52:50.321Z,5.10
2018-06-20T10:55:19.111Z,4.70
2018-06-20T10:57:52.963Z,5.13
2018-06-20T11:00:26.948Z,5.20
2018-06-20T11:03:00.749Z,5.23
2018-06-20T11:05:34.477Z,4.90
2018-06-20T11:08:08.676Z,5.30
2018-06-20T11:10:42.512Z,5.23
2018-06-20T11:13:13.487Z,5.77
2018-06-20T11:15:42.380Z,5.43
2018-06-20T11:18:11.205Z,6.03
2018-06-20T11:20:44.982Z,6.17
2018-06-20T11:23:13.534Z,5.80
2018-06-20T11:25:42.144Z,6.37
2018-06-20T11:28:13.877Z,6.00
2018-06-20T11:30:43.862Z,6.03
2018-06-20T11:33:12.981Z,5.40
2018-06-20T11:35:42.206Z,6.17
2018-06-20T11:38:11.341Z,6.10
2018-06-20T11:40:39.904Z,5.80
2018-06-20T11:43:08.627Z,5.73
2018-06-20T11:45:42.713Z,6.03
2018-06-20T11:48:11.367Z,6.40
2018-06-20T11:50:40.071Z,6.03
2018-06-20T11:53:10.038Z,6.20
2018-06-20T11:55:44.181Z,6.17
2018-06-20T11:58:18.036Z,6.20
2018-06-20T12:00:51.899Z,5.83
2018-06-20T12:03:25.984Z,6.03
2018-06-20T12:06:00.110Z,5.20
2018-06-20T12:08:34.207Z,6.27
2018-06-20T12:11:08.116Z,5.80
2018-06-20T12:13:42.041Z,5.73
2018-06-20T12:16:23.959Z,6.23
2018-06-20T12:18:57.731Z,6.17
2018-06-20T12:21:31.772Z,6.03
2018-06-20T12:24:06.167Z,5.30
2018-06-20T12:26:40.331Z,5.80
2018-06-20T12:29:14.061Z,5.50
2018-06-20T12:31:48.064Z,5.20
2018-06-20T12:34:22.153Z,4.80
2018-06-20T12:36:56.204Z,5.53
2018-06-20T12:39:23.939Z,5.70
2018-06-20T12:41:57.759Z,5.43
2018-06-20T12:45:29.980Z,5.03
2018-06-20T12:47:58.868Z,5.17
2018-06-20T12:50:28.240Z,5.57
2018-06-20T12:52:57.416Z,5.07
2018-06-20T12:55:26.696Z,5.60
2018-06-20T12:57:55.997Z,5.23
2018-06-20T13:00:24.594Z,5.47
2018-06-20T13:02:53.298Z,4.97
2018-06-20T13:05:22.017Z,5.30
2018-06-20T13:07:50.303Z,4.63
2018-06-20T13:10:18.884Z,5.10
2018-06-20T13:12:47.162Z,5.53
2018-06-20T13:15:15.903Z,5.10
2018-06-20T13:17:44.590Z,5.60
2018-06-20T13:20:13.564Z,5.10
2018-06-20T13:22:42.310Z,5.07
2018-06-20T13:25:10.987Z,4.77
2018-06-20T13:27:44.530Z,4.50
2018-06-20T13:30:13.484Z,4.10
2018-06-20T13:32:47.437Z,4.50
2018-06-20T13:35:21.306Z,5.27
2018-06-20T13:37:55.418Z,4.43
2018-06-20T13:40:29.048Z,5.13
2018-06-20T13:43:03.111Z,5.03
2018-06-20T13:45:37.035Z,4.83
2018-06-20T13:48:11.150Z,5.20
2018-06-20T13:50:40.082Z,5.07
2018-06-20T13:53:08.780Z,4.53
2018-06-20T13:55:37.549Z,5.03
2018-06-20T13:58:11.241Z,5.00
2018-06-20T14:00:39.897Z,4.50
2018-06-20T14:03:08.715Z,4.50
2018-06-20T14:05:37.518Z,4.57
2018-06-20T14:08:06.223Z,4.20
2018-06-20T14:10:35.093Z,3.90
2018-06-20T14:13:03.969Z,3.80
2018-06-20T14:15:32.633Z,3.60
2018-06-20T14:18:01.440Z,3.90
2018-06-20T14:20:35.448Z,3.90
2018-06-20T14:23:04.024Z,4.10
2018-06-20T14:25:32.556Z,4.00
2018-06-20T14:28:01.196Z,3.50
2018-06-20T14:31:35.915Z,4.43
2018-06-20T14:34:09.808Z,3.40
2018-06-20T14:36:44.318Z,2.70
2018-06-20T14:39:18.524Z,3.00
2018-06-20T14:41:52.524Z,2.73
2018-06-20T14:44:21.166Z,3.30
2018-06-20T14:46:49.797Z,3.00
2018-06-20T14:49:18.317Z,3.10
2018-06-20T14:51:46.955Z,2.63
2018-06-20T14:54:15.634Z,2.50
2018-06-20T14:56:44.304Z,2.87
2018-06-20T14:59:12.988Z,2.50
2018-06-20T15:01:41.616Z,2.77
2018-06-20T15:04:10.244Z,2.90
2018-06-20T15:06:38.859Z,2.60
2018-06-20T15:09:08.397Z,2.93
2018-06-20T15:11:37.135Z,2.80
2018-06-20T15:14:05.778Z,2.40
2018-06-20T15:16:39.619Z,2.93
2018-06-20T15:19:08.135Z,2.53
2018-06-20T15:21:36.715Z,1.80
2018-06-20T15:24:05.712Z,2.40
2018-06-20T15:26:39.551Z,4.00
2018-06-20T15:29:13.330Z,2.07
2018-06-20T15:31:47.391Z,2.30
2018-06-20T15:34:21.377Z,2.03
2018-06-20T15:36:55.146Z,1.80
2018-06-20T15:39:24.011Z,2.30
2018-06-20T15:41:52.817Z,2.10
2018-06-20T15:44:23.324Z,2.83
2018-06-20T15:46:51.850Z,2.20
2018-06-20T15:49:20.794Z,2.40
2018-06-20T15:51:49.504Z,2.27
2018-06-20T15:54:18.507Z,2.70
2018-06-20T15:56:47.242Z,2.53
2018-06-20T15:59:15.779Z,2.37
2018-06-20T16:01:44.358Z,2.37
2018-06-20T16:04:12.996Z,2.57
2018-06-20T16:06:42.168Z,2.50
2018-06-20T16:09:15.976Z,2.30
2018-06-20T16:11:45.107Z,2.40
2018-06-20T16:14:16.101Z,2.53
2018-06-20T16:16:44.762Z,2.20
2018-06-20T16:19:18.524Z,2.70
2018-06-20T16:21:52.573Z,2.80
2018-06-20T16:24:26.792Z,2.30
2018-06-20T16:27:00.686Z,2.70
2018-06-20T16:30:36.367Z,2.40
2018-06-20T16:33:05.349Z,2.17
2018-06-20T16:35:34.364Z,2.67
2018-06-20T16:38:03.397Z,2.30
2018-06-20T16:40:31.927Z,2.57
2018-06-20T16:43:01.023Z,3.00
2018-06-20T16:45:29.354Z,2.53
2018-06-20T16:47:58.199Z,2.93
2018-06-20T16:50:26.864Z,2.77
2018-06-20T16:52:55.857Z,3.33
2018-06-20T16:55:24.611Z,2.67
2018-06-20T16:57:53.463Z,2.73
2018-06-20T17:00:22.428Z,5.80
2018-06-20T17:02:51.223Z,3.50
2018-06-20T17:05:20.095Z,4.93
2018-06-20T17:07:48.656Z,3.07
2018-06-20T17:10:20.058Z,3.07
2018-06-20T17:12:55.137Z,3.30
2018-06-20T17:15:29.339Z,3.07
2018-06-20T17:18:03.321Z,3.07
2018-06-20T17:20:37.359Z,3.00
2018-06-20T17:23:11.371Z,3.00
2018-06-20T17:25:40.139Z,3.20
2018-06-20T17:28:08.775Z,2.80
2018-06-20T17:30:37.376Z,3.43
2018-06-20T17:33:06.104Z,3.30
2018-06-20T17:35:34.972Z,3.20
2018-06-20T17:38:04.369Z,3.33
2018-06-20T17:40:32.995Z,3.47
2018-06-20T17:43:01.564Z,3.40
2018-06-20T17:45:30.272Z,3.40
2018-06-20T17:47:58.887Z,3.27
2018-06-20T17:50:27.459Z,3.23
2018-06-20T17:52:56.034Z,3.63
2018-06-20T17:55:24.611Z,5.30
2018-06-20T17:57:53.188Z,3.20
2018-06-20T18:00:21.955Z,3.60
2018-06-20T18:02:50.531Z,3.00
2018-06-20T18:05:24.469Z,2.87
2018-06-20T18:07:58.529Z,2.87
2018-06-20T18:10:32.394Z,3.00
2018-06-20T18:13:07.748Z,3.43
2018-06-20T18:15:41.809Z,3.13
2018-06-20T18:18:10.471Z,3.20
2018-06-20T18:20:39.211Z,3.00
2018-06-20T18:23:07.971Z,3.00
2018-06-20T18:25:36.527Z,3.10
2018-06-20T18:28:05.527Z,3.30
2018-06-20T18:30:34.153Z,3.50
2018-06-20T18:33:02.769Z,3.37
2018-06-20T18:35:31.439Z,3.47
2018-06-20T18:38:00.197Z,3.33
2018-06-20T18:40:29.185Z,3.90
2018-06-20T18:42:57.822Z,3.80
2018-06-20T18:45:26.471Z,3.50
2018-06-20T18:48:00.528Z,3.40
2018-06-20T18:50:29.032Z,3.70
2018-06-20T18:52:58.035Z,3.50
2018-06-20T18:55:26.879Z,5.00
2018-06-20T18:58:01.215Z,4.60
2018-06-20T19:00:35.439Z,4.00
2018-06-20T19:04:12.781Z,4.47
2018-06-20T19:06:46.748Z,4.70
2018-06-20T19:09:18.102Z,4.87
2018-06-20T19:11:47.477Z,3.90
2018-06-20T19:14:16.788Z,4.60
2018-06-20T19:16:45.492Z,4.00
2018-06-20T19:19:14.242Z,4.47
2018-06-20T19:21:43.528Z,4.20
2018-06-20T19:24:12.786Z,4.87
2018-06-20T19:26:41.419Z,4.20
2018-06-20T19:29:10.202Z,4.83
2018-06-20T19:31:38.883Z,4.87
2018-06-20T19:34:07.795Z,4.60
2018-06-20T19:36:36.635Z,5.30
2018-06-20T19:39:12.308Z,5.50
2018-06-20T19:41:42.201Z,4.80
2018-06-20T19:44:16.251Z,5.90
2018-06-20T19:46:44.949Z,4.67
2018-06-20T19:49:13.589Z,4.77
2018-06-20T19:51:42.264Z,4.97
2018-06-20T19:54:10.991Z,4.80
2018-06-20T19:56:39.667Z,5.50
2018-06-20T19:59:08.375Z,5.20
2018-06-20T20:01:37.167Z,5.33
2018-06-20T20:04:06.083Z,4.73
2018-06-20T20:06:34.737Z,5.00
2018-06-20T20:09:03.645Z,5.33
2018-06-20T20:11:32.312Z,5.37
2018-06-20T20:14:00.881Z,5.07
2018-06-20T20:16:29.522Z,5.53
2018-06-20T20:18:58.177Z,5.23
2018-06-20T20:21:26.776Z,5.37
2018-06-20T20:23:55.445Z,5.73
2018-06-20T20:26:24.208Z,5.67
2018-06-20T20:28:52.830Z,5.43
2018-06-20T20:31:22.091Z,4.80
2018-06-20T20:33:51.532Z,5.60
2018-06-20T20:36:20.516Z,5.77
2018-06-20T20:38:49.561Z,5.57
2018-06-20T20:41:20.148Z,5.90
2018-06-20T20:43:49.223Z,6.37
2018-06-20T20:46:19.118Z,6.50
2018-06-20T20:48:48.126Z,5.93
2018-06-20T20:51:16.878Z,5.40
2018-06-20T20:53:46.461Z,6.53
2018-06-20T20:56:15.197Z,5.97
2018-06-20T20:58:43.912Z,5.67
2018-06-20T21:01:12.835Z,5.63
2018-06-20T21:03:42.372Z,5.90
2018-06-20T21:06:11.273Z,5.63
2018-06-20T21:08:39.863Z,5.70
2018-06-20T21:11:08.832Z,5.53
2018-06-20T21:13:38.007Z,6.20
2018-06-20T21:16:06.980Z,6.13
2018-06-20T21:18:36.131Z,5.37
2018-06-20T21:21:04.947Z,6.70
2018-06-20T21:23:33.712Z,6.57
2018-06-20T21:26:02.363Z,6.63
2018-06-20T21:28:31.149Z,6.57
2018-06-20T21:31:00.218Z,5.90
2018-06-20T21:33:29.290Z,6.20
2018-06-20T21:35:58.467Z,6.17
2018-06-20T21:38:28.921Z,6.43
2018-06-20T21:40:57.887Z,5.50
2018-06-20T21:43:26.775Z,6.17
2018-06-20T21:45:56.435Z,6.10
2018-06-20T21:48:25.620Z,5.83
2018-06-20T21:50:54.716Z,5.70
2018-06-20T21:53:24.218Z,6.03
2018-06-20T21:55:53.613Z,6.53
2018-06-20T21:58:22.158Z,6.30
2018-06-20T22:00:50.819Z,6.10
2018-06-20T22:03:19.862Z,7.00
2018-06-20T22:05:48.655Z,6.23
2018-06-20T22:08:18.850Z,6.57
2018-06-20T22:10:48.348Z,6.90
2018-06-20T22:13:18.043Z,6.50
2018-06-20T22:15:47.108Z,6.07
2018-06-20T22:18:17.399Z,5.87
2018-06-20T22:20:46.547Z,6.47
2018-06-20T22:23:15.452Z,7.00
2018-06-20T22:25:45.738Z,6.60
2018-06-20T22:28:14.431Z,6.67
2018-06-20T22:30:43.395Z,6.83
2018-06-20T22:33:12.627Z,6.90
2018-06-20T22:35:42.550Z,6.60
2018-06-20T22:38:12.120Z,6.87
2018-06-20T22:40:41.063Z,6.97
2018-06-20T22:43:09.410Z,6.57
2018-06-20T22:45:38.210Z,6.60
2018-06-20T22:48:07.300Z,6.20
2018-06-20T22:50:36.075Z,6.23
2018-06-20T22:53:04.950Z,6.77
2018-06-20T22:55:33.661Z,7.40
2018-06-20T22:58:03.563Z,6.70
2018-06-20T23:00:32.470Z,6.27
2018-06-20T23:03:01.026Z,6.30
2018-06-20T23:05:29.632Z,5.80
2018-06-20T23:07:58.283Z,6.80
2018-06-20T23:10:26.976Z,6.47
2018-06-20T23:12:56.057Z,6.20
2018-06-20T23:15:24.890Z,5.80
2018-06-20T23:17:53.832Z,6.40
2018-06-20T23:20:22.599Z,6.00
2018-06-20T23:22:51.420Z,6.83
2018-06-20T23:25:20.303Z,6.53
2018-06-20T23:27:48.949Z,6.47
2018-06-20T23:30:17.932Z,6.80
2018-06-20T23:32:46.441Z,6.90
2018-06-20T23:35:15.248Z,6.60
2018-06-20T23:37:43.973Z,6.40
2018-06-20T23:40:12.851Z,6.93
2018-06-20T23:42:41.356Z,7.60
2018-06-20T23:45:10.091Z,6.77
2018-06-20T23:47:38.684Z,6.80
2018-06-20T23:50:07.493Z,7.37
2018-06-20T23:52:36.178Z,7.47
2018-06-20T23:55:05.647Z,7.77
2018-06-20T23:57:34.816Z,6.83
